sensor_id;sensor_type;location;lat;lon;timestamp;pressure;altitude;pressure_sealevel;temperature;humidity
56330;BME280;42236;48.058;10.632;2023-05-25T00:00:26;94964.06;;;10.08;76.42
56330;BME280;42236;48.058;10.632;2023-05-25T00:03:12;94958.22;;;10.06;76.08
56330;BME280;42236;48.058;10.632;2023-05-25T00:05:59;94959.78;;;10.07;75.63
56330;BME280;42236;48.058;10.632;2023-05-25T00:08:48;94954.19;;;10.12;75.78
56330;BME280;42236;48.058;10.632;2023-05-25T00:11:35;94964.34;;;10.15;75.65
56330;BME280;42236;48.058;10.632;2023-05-25T00:14:21;94962.53;;;10.19;75.58
56330;BME280;42236;48.058;10.632;2023-05-25T00:17:07;94964.13;;;10.20;75.11
56330;BME280;42236;48.058;10.632;2023-05-25T00:19:54;94961.44;;;10.20;75.33
56330;BME280;42236;48.058;10.632;2023-05-25T00:22:42;94970.63;;;10.19;75.35
56330;BME280;42236;48.058;10.632;2023-05-25T00:25:31;94979.19;;;10.21;75.37
56330;BME280;42236;48.058;10.632;2023-05-25T00:28:17;94970.00;;;10.22;75.65
56330;BME280;42236;48.058;10.632;2023-05-25T00:31:02;94973.00;;;10.21;75.46
56330;BME280;42236;48.058;10.632;2023-05-25T00:33:48;94963.56;;;10.15;75.83
56330;BME280;42236;48.058;10.632;2023-05-25T00:36:34;94959.47;;;10.09;76.01
56330;BME280;42236;48.058;10.632;2023-05-25T00:39:20;94966.63;;;10.04;76.10
56330;BME280;42236;48.058;10.632;2023-05-25T00:42:06;94959.41;;;9.96;76.40
56330;BME280;42236;48.058;10.632;2023-05-25T00:44:53;94966.03;;;9.99;76.18
56330;BME280;42236;48.058;10.632;2023-05-25T00:47:38;94967.16;;;9.98;76.44
56330;BME280;42236;48.058;10.632;2023-05-25T00:50:44;94958.00;;;9.90;77.93
56330;BME280;42236;48.058;10.632;2023-05-25T00:53:30;94965.63;;;9.88;76.81
56330;BME280;42236;48.058;10.632;2023-05-25T00:56:21;94963.53;;;9.94;76.88
56330;BME280;42236;48.058;10.632;2023-05-25T00:59:11;94956.75;;;9.88;77.09
56330;BME280;42236;48.058;10.632;2023-05-25T01:02:03;94959.91;;;9.90;77.24
56330;BME280;42236;48.058;10.632;2023-05-25T01:04:52;94955.66;;;9.89;76.97
56330;BME280;42236;48.058;10.632;2023-05-25T01:07:41;94943.00;;;9.80;77.72
56330;BME280;42236;48.058;10.632;2023-05-25T01:10:30;94939.84;;;9.78;77.59
56330;BME280;42236;48.058;10.632;2023-05-25T01:13:18;94935.91;;;9.76;77.44
56330;BME280;42236;48.058;10.632;2023-05-25T01:16:08;94940.13;;;9.65;77.94
56330;BME280;42236;48.058;10.632;2023-05-25T01:18:54;94945.97;;;9.67;77.37
56330;BME280;42236;48.058;10.632;2023-05-25T01:21:47;94951.94;;;9.72;77.58
56330;BME280;42236;48.058;10.632;2023-05-25T01:27:24;94950.19;;;9.76;77.22
56330;BME280;42236;48.058;10.632;2023-05-25T01:30:15;94953.78;;;9.80;77.10
56330;BME280;42236;48.058;10.632;2023-05-25T01:33:03;94958.41;;;9.80;77.13
56330;BME280;42236;48.058;10.632;2023-05-25T01:35:50;94956.16;;;9.82;76.81
56330;BME280;42236;48.058;10.632;2023-05-25T01:38:36;94956.16;;;9.82;76.97
56330;BME280;42236;48.058;10.632;2023-05-25T01:41:23;94952.69;;;9.81;76.92
56330;BME280;42236;48.058;10.632;2023-05-25T01:44:09;94952.22;;;9.79;76.68
56330;BME280;42236;48.058;10.632;2023-05-25T01:47:03;94948.13;;;9.73;76.96
56330;BME280;42236;48.058;10.632;2023-05-25T01:50:02;94954.66;;;9.72;76.97
56330;BME280;42236;48.058;10.632;2023-05-25T01:53:03;94954.50;;;9.69;76.74
56330;BME280;42236;48.058;10.632;2023-05-25T01:56:08;94956.41;;;9.68;76.97
56330;BME280;42236;48.058;10.632;2023-05-25T01:58:57;94957.19;;;9.69;76.42
56330;BME280;42236;48.058;10.632;2023-05-25T02:01:43;94959.75;;;9.65;76.32
56330;BME280;42236;48.058;10.632;2023-05-25T02:04:30;94951.16;;;9.72;75.97
56330;BME280;42236;48.058;10.632;2023-05-25T02:07:15;94951.75;;;9.77;75.79
56330;BME280;42236;48.058;10.632;2023-05-25T02:10:02;94954.66;;;9.72;75.98
56330;BME280;42236;48.058;10.632;2023-05-25T02:12:47;94951.94;;;9.72;75.87
56330;BME280;42236;48.058;10.632;2023-05-25T02:15:33;94944.81;;;9.76;75.55
56330;BME280;42236;48.058;10.632;2023-05-25T02:18:19;94951.28;;;9.75;75.55
56330;BME280;42236;48.058;10.632;2023-05-25T02:21:04;94949.38;;;9.76;75.63
56330;BME280;42236;48.058;10.632;2023-05-25T02:23:51;94943.41;;;9.70;75.59
56330;BME280;42236;48.058;10.632;2023-05-25T02:26:38;94946.88;;;9.71;75.54
56330;BME280;42236;48.058;10.632;2023-05-25T02:29:24;94947.06;;;9.66;75.66
56330;BME280;42236;48.058;10.632;2023-05-25T02:32:09;94943.59;;;9.65;75.69
56330;BME280;42236;48.058;10.632;2023-05-25T02:34:55;94943.63;;;9.56;76.27
56330;BME280;42236;48.058;10.632;2023-05-25T02:37:41;94948.31;;;9.47;76.30
56330;BME280;42236;48.058;10.632;2023-05-25T02:40:26;94946.44;;;9.39;76.51
56330;BME280;42236;48.058;10.632;2023-05-25T02:43:12;94942.75;;;9.44;76.19
56330;BME280;42236;48.058;10.632;2023-05-25T02:45:58;94954.97;;;9.41;76.32
56330;BME280;42236;48.058;10.632;2023-05-25T02:48:43;94947.41;;;9.34;76.70
56330;BME280;42236;48.058;10.632;2023-05-25T02:51:29;94954.28;;;9.23;77.16
56330;BME280;42236;48.058;10.632;2023-05-25T02:54:15;94944.31;;;9.15;77.51
56330;BME280;42236;48.058;10.632;2023-05-25T02:57:04;94949.72;;;9.15;77.86
56330;BME280;42236;48.058;10.632;2023-05-25T02:59:50;94951.94;;;9.13;78.02
56330;BME280;42236;48.058;10.632;2023-05-25T03:02:37;94947.66;;;9.12;78.18
56330;BME280;42236;48.058;10.632;2023-05-25T03:05:22;94955.44;;;9.05;78.21
56330;BME280;42236;48.058;10.632;2023-05-25T03:08:08;94955.63;;;9.00;78.87
56330;BME280;42236;48.058;10.632;2023-05-25T03:10:54;94950.44;;;8.94;79.14
56330;BME280;42236;48.058;10.632;2023-05-25T03:13:40;94949.31;;;8.95;78.55
56330;BME280;42236;48.058;10.632;2023-05-25T03:16:25;94949.19;;;8.92;79.30
56330;BME280;42236;48.058;10.632;2023-05-25T03:19:11;94954.56;;;8.92;78.95
56330;BME280;42236;48.058;10.632;2023-05-25T03:21:57;94952.81;;;8.87;79.31
56330;BME280;42236;48.058;10.632;2023-05-25T03:24:42;94951.41;;;8.81;79.76
56330;BME280;42236;48.058;10.632;2023-05-25T03:27:29;94957.44;;;8.78;79.80
56330;BME280;42236;48.058;10.632;2023-05-25T03:30:15;94953.63;;;8.79;79.61
56330;BME280;42236;48.058;10.632;2023-05-25T03:33:00;94949.69;;;8.76;79.84
56330;BME280;42236;48.058;10.632;2023-05-25T03:35:46;94951.59;;;8.76;79.92
56330;BME280;42236;48.058;10.632;2023-05-25T03:38:31;94959.19;;;8.74;80.25
56330;BME280;42236;48.058;10.632;2023-05-25T03:41:17;94965.19;;;8.80;80.02
56330;BME280;42236;48.058;10.632;2023-05-25T03:44:03;94973.69;;;8.90;79.45
56330;BME280;42236;48.058;10.632;2023-05-25T03:46:49;94975.75;;;8.93;79.29
56330;BME280;42236;48.058;10.632;2023-05-25T03:49:34;94982.53;;;9.00;79.40
56330;BME280;42236;48.058;10.632;2023-05-25T03:52:20;94974.47;;;8.91;79.75
56330;BME280;42236;48.058;10.632;2023-05-25T03:55:06;94985.59;;;8.89;80.19
56330;BME280;42236;48.058;10.632;2023-05-25T03:57:52;94987.94;;;8.91;79.84
56330;BME280;42236;48.058;10.632;2023-05-25T04:00:37;94975.91;;;8.97;79.64
56330;BME280;42236;48.058;10.632;2023-05-25T04:03:23;94974.13;;;9.01;79.61
56330;BME280;42236;48.058;10.632;2023-05-25T04:06:09;94978.25;;;8.98;79.90
56330;BME280;42236;48.058;10.632;2023-05-25T04:08:55;94969.75;;;8.79;80.97
56330;BME280;42236;48.058;10.632;2023-05-25T04:11:45;94975.31;;;8.74;81.29
56330;BME280;42236;48.058;10.632;2023-05-25T04:14:31;94968.50;;;8.76;81.11
56330;BME280;42236;48.058;10.632;2023-05-25T04:17:16;94971.03;;;8.82;80.90
56330;BME280;42236;48.058;10.632;2023-05-25T04:20:04;94972.28;;;8.84;80.67
56330;BME280;42236;48.058;10.632;2023-05-25T04:22:49;94983.69;;;8.90;80.60
56330;BME280;42236;48.058;10.632;2023-05-25T04:25:35;94974.53;;;8.82;81.03
56330;BME280;42236;48.058;10.632;2023-05-25T04:28:22;94971.50;;;8.84;81.02
56330;BME280;42236;48.058;10.632;2023-05-25T04:31:07;94974.66;;;8.86;81.31
56330;BME280;42236;48.058;10.632;2023-05-25T04:33:53;94974.84;;;8.81;81.48
56330;BME280;42236;48.058;10.632;2023-05-25T04:36:40;94969.16;;;8.82;81.45
56330;BME280;42236;48.058;10.632;2023-05-25T04:39:27;94972.94;;;8.81;81.64
56330;BME280;42236;48.058;10.632;2023-05-25T04:42:13;94970.72;;;8.83;81.44
56330;BME280;42236;48.058;10.632;2023-05-25T04:44:59;94977.50;;;8.89;81.26
56330;BME280;42236;48.058;10.632;2023-05-25T04:47:44;94978.59;;;8.97;81.24
56330;BME280;42236;48.058;10.632;2023-05-25T04:50:31;94981.25;;;9.06;80.82
56330;BME280;42236;48.058;10.632;2023-05-25T04:53:17;94983.00;;;9.02;81.93
56330;BME280;42236;48.058;10.632;2023-05-25T04:56:03;94984.28;;;8.95;83.11
56330;BME280;42236;48.058;10.632;2023-05-25T04:58:48;94987.31;;;8.94;83.64
56330;BME280;42236;48.058;10.632;2023-05-25T05:01:34;94985.38;;;9.03;82.91
56330;BME280;42236;48.058;10.632;2023-05-25T05:04:24;94994.06;;;9.09;83.40
56330;BME280;42236;48.058;10.632;2023-05-25T05:07:10;94993.06;;;9.22;82.47
56330;BME280;42236;48.058;10.632;2023-05-25T05:09:56;94987.03;;;9.25;83.00
56330;BME280;42236;48.058;10.632;2023-05-25T05:12:41;95001.91;;;9.31;82.84
56330;BME280;42236;48.058;10.632;2023-05-25T05:15:27;94995.50;;;9.45;83.05
56330;BME280;42236;48.058;10.632;2023-05-25T05:18:13;94997.19;;;9.58;83.06
56330;BME280;42236;48.058;10.632;2023-05-25T05:20:58;94998.59;;;9.64;82.89
56330;BME280;42236;48.058;10.632;2023-05-25T05:23:44;94994.78;;;9.65;83.76
56330;BME280;42236;48.058;10.632;2023-05-25T05:26:30;94998.88;;;9.71;84.16
56330;BME280;42236;48.058;10.632;2023-05-25T05:29:16;95001.28;;;9.64;84.85
56330;BME280;42236;48.058;10.632;2023-05-25T05:32:02;95007.41;;;9.73;84.58
56330;BME280;42236;48.058;10.632;2023-05-25T05:34:47;95002.16;;;9.77;85.91
56330;BME280;42236;48.058;10.632;2023-05-25T05:37:33;95010.56;;;9.75;85.90
56330;BME280;42236;48.058;10.632;2023-05-25T05:40:19;95003.22;;;9.85;85.97
56330;BME280;42236;48.058;10.632;2023-05-25T05:43:04;94996.84;;;9.89;86.88
56330;BME280;42236;48.058;10.632;2023-05-25T05:45:51;95006.38;;;9.87;87.05
56330;BME280;42236;48.058;10.632;2023-05-25T05:48:36;95005.25;;;9.88;89.09
56330;BME280;42236;48.058;10.632;2023-05-25T05:51:22;95010.00;;;9.91;87.25
56330;BME280;42236;48.058;10.632;2023-05-25T05:54:08;95008.22;;;9.95;88.49
56330;BME280;42236;48.058;10.632;2023-05-25T05:56:53;95010.72;;;10.00;87.88
56330;BME280;42236;48.058;10.632;2023-05-25T05:59:39;95008.91;;;10.13;87.36
56330;BME280;42236;48.058;10.632;2023-05-25T06:02:25;95008.38;;;10.19;87.52
56330;BME280;42236;48.058;10.632;2023-05-25T06:05:10;95005.66;;;10.28;87.91
56330;BME280;42236;48.058;10.632;2023-05-25T06:07:56;95009.84;;;10.38;86.89
56330;BME280;42236;48.058;10.632;2023-05-25T06:10:42;95005.50;;;10.45;88.23
56330;BME280;42236;48.058;10.632;2023-05-25T06:13:27;95011.00;;;10.70;86.30
56330;BME280;42236;48.058;10.632;2023-05-25T06:16:13;95007.31;;;10.75;86.70
56330;BME280;42236;48.058;10.632;2023-05-25T06:18:59;95011.91;;;10.95;85.77
56330;BME280;42236;48.058;10.632;2023-05-25T06:21:44;95006.31;;;11.13;85.59
56330;BME280;42236;48.058;10.632;2023-05-25T06:24:30;95009.50;;;11.39;84.74
56330;BME280;42236;48.058;10.632;2023-05-25T06:27:16;95011.09;;;11.52;84.92
56330;BME280;42236;48.058;10.632;2023-05-25T06:30:02;95019.09;;;11.61;84.18
56330;BME280;42236;48.058;10.632;2023-05-25T06:32:47;95015.03;;;11.67;84.31
56330;BME280;42236;48.058;10.632;2023-05-25T06:35:33;95025.28;;;11.74;85.27
56330;BME280;42236;48.058;10.632;2023-05-25T06:38:19;95019.06;;;11.86;84.25
56330;BME280;42236;48.058;10.632;2023-05-25T06:41:04;95008.88;;;11.91;84.87
56330;BME280;42236;48.058;10.632;2023-05-25T06:43:51;95015.16;;;11.95;84.85
56330;BME280;42236;48.058;10.632;2023-05-25T06:46:37;95019.88;;;12.11;84.89
56330;BME280;42236;48.058;10.632;2023-05-25T06:49:23;95015.34;;;12.15;84.91
56330;BME280;42236;48.058;10.632;2023-05-25T06:52:09;95011.31;;;12.21;84.88
56330;BME280;42236;48.058;10.632;2023-05-25T06:54:55;95010.63;;;12.24;85.24
56330;BME280;42236;48.058;10.632;2023-05-25T06:57:41;95017.69;;;12.29;84.81
56330;BME280;42236;48.058;10.632;2023-05-25T07:00:28;95017.69;;;12.29;85.27
56330;BME280;42236;48.058;10.632;2023-05-25T07:03:13;95021.44;;;12.24;86.29
56330;BME280;42236;48.058;10.632;2023-05-25T07:05:59;95013.28;;;12.36;85.11
56330;BME280;42236;48.058;10.632;2023-05-25T07:08:45;95009.19;;;12.55;84.74
56330;BME280;42236;48.058;10.632;2023-05-25T07:11:30;95013.22;;;12.61;85.25
56330;BME280;42236;48.058;10.632;2023-05-25T07:14:16;95013.66;;;12.63;85.24
56330;BME280;42236;48.058;10.632;2023-05-25T07:17:02;95010.66;;;12.80;84.53
56330;BME280;42236;48.058;10.632;2023-05-25T07:19:48;95007.03;;;12.89;84.44
56330;BME280;42236;48.058;10.632;2023-05-25T07:22:34;95015.41;;;12.99;83.71
56330;BME280;42236;48.058;10.632;2023-05-25T07:25:20;95013.44;;;13.12;83.61
56330;BME280;42236;48.058;10.632;2023-05-25T07:28:06;95022.16;;;13.34;82.71
56330;BME280;42236;48.058;10.632;2023-05-25T07:30:52;95018.56;;;13.30;82.89
56330;BME280;42236;48.058;10.632;2023-05-25T07:33:38;95013.72;;;13.23;82.97
56330;BME280;42236;48.058;10.632;2023-05-25T07:36:23;95026.47;;;13.22;82.79
56330;BME280;42236;48.058;10.632;2023-05-25T07:39:09;95029.44;;;13.17;83.73
56330;BME280;42236;48.058;10.632;2023-05-25T07:41:55;95040.59;;;13.28;82.65
56330;BME280;42236;48.058;10.632;2023-05-25T07:44:41;95040.06;;;13.38;82.39
56330;BME280;42236;48.058;10.632;2023-05-25T07:47:27;95045.34;;;13.47;82.29
56330;BME280;42236;48.058;10.632;2023-05-25T07:50:14;95058.44;;;13.45;82.47
56330;BME280;42236;48.058;10.632;2023-05-25T07:53:00;95057.59;;;13.41;82.56
56330;BME280;42236;48.058;10.632;2023-05-25T07:55:46;95056.59;;;13.33;82.65
56330;BME280;42236;48.058;10.632;2023-05-25T07:58:31;95060.09;;;13.34;82.97
56330;BME280;42236;48.058;10.632;2023-05-25T08:01:17;95071.66;;;13.47;82.51
56330;BME280;42236;48.058;10.632;2023-05-25T08:04:03;95068.16;;;13.46;82.53
56330;BME280;42236;48.058;10.632;2023-05-25T08:06:48;95067.78;;;13.48;82.38
56330;BME280;42236;48.058;10.632;2023-05-25T08:09:34;95067.56;;;13.69;81.32
56330;BME280;42236;48.058;10.632;2023-05-25T08:12:20;95072.91;;;13.81;80.54
56330;BME280;42236;48.058;10.632;2023-05-25T08:15:06;95069.22;;;13.89;80.23
56330;BME280;42236;48.058;10.632;2023-05-25T08:17:51;95077.63;;;14.00;80.00
56330;BME280;42236;48.058;10.632;2023-05-25T08:20:37;95079.19;;;14.01;79.95
56330;BME280;42236;48.058;10.632;2023-05-25T08:23:23;95074.63;;;13.89;79.69
56330;BME280;42236;48.058;10.632;2023-05-25T08:26:09;95077.78;;;13.91;79.63
56330;BME280;42236;48.058;10.632;2023-05-25T08:28:55;95084.81;;;13.92;79.77
56330;BME280;42236;48.058;10.632;2023-05-25T08:31:41;95079.09;;;13.97;79.38
56330;BME280;42236;48.058;10.632;2023-05-25T08:34:29;95084.34;;;14.06;78.54
56330;BME280;42236;48.058;10.632;2023-05-25T08:37:15;95083.00;;;14.16;78.47
56330;BME280;42236;48.058;10.632;2023-05-25T08:40:02;95085.81;;;14.19;78.25
56330;BME280;42236;48.058;10.632;2023-05-25T08:42:48;95096.06;;;14.26;78.59
56330;BME280;42236;48.058;10.632;2023-05-25T08:45:34;95088.38;;;14.28;78.79
56330;BME280;42236;48.058;10.632;2023-05-25T08:48:21;95098.22;;;14.36;78.82
56330;BME280;42236;48.058;10.632;2023-05-25T08:51:08;95111.31;;;14.30;78.77
56330;BME280;42236;48.058;10.632;2023-05-25T08:54:09;95107.88;;;14.18;79.16
56330;BME280;42236;48.058;10.632;2023-05-25T08:59:54;95109.38;;;14.31;79.22
56330;BME280;42236;48.058;10.632;2023-05-25T09:05:38;95107.66;;;14.42;79.03
56330;BME280;42236;48.058;10.632;2023-05-25T09:08:24;95103.91;;;14.47;78.74
56330;BME280;42236;48.058;10.632;2023-05-25T09:11:11;95114.25;;;14.41;78.68
56330;BME280;42236;48.058;10.632;2023-05-25T09:14:24;95119.41;;;14.46;78.14
56330;BME280;42236;48.058;10.632;2023-05-25T09:17:12;95125.19;;;14.61;78.22
56330;BME280;42236;48.058;10.632;2023-05-25T09:20:07;95123.94;;;14.74;77.68
56330;BME280;42236;48.058;10.632;2023-05-25T09:22:54;95117.63;;;14.70;77.48
56330;BME280;42236;48.058;10.632;2023-05-25T09:26:24;95124.22;;;14.53;77.55
56330;BME280;42236;48.058;10.632;2023-05-25T09:32:47;95123.53;;;14.91;77.15
56330;BME280;42236;48.058;10.632;2023-05-25T09:39:09;95126.91;;;15.24;76.25
56330;BME280;42236;48.058;10.632;2023-05-25T09:41:56;95135.06;;;15.24;75.84
56330;BME280;42236;48.058;10.632;2023-05-25T09:44:45;95130.47;;;15.28;75.07
56330;BME280;42236;48.058;10.632;2023-05-25T09:47:31;95139.22;;;15.37;75.28
56330;BME280;42236;48.058;10.632;2023-05-25T09:50:17;95153.00;;;15.28;75.63
56330;BME280;42236;48.058;10.632;2023-05-25T09:53:06;95148.19;;;15.41;75.15
56330;BME280;42236;48.058;10.632;2023-05-25T09:56:04;95149.41;;;15.24;74.39
56330;BME280;42236;48.058;10.632;2023-05-25T09:58:51;95150.00;;;15.33;75.07
56330;BME280;42236;48.058;10.632;2023-05-25T10:01:37;95146.28;;;15.42;74.99
56330;BME280;42236;48.058;10.632;2023-05-25T10:04:22;95143.00;;;15.52;74.24
56330;BME280;42236;48.058;10.632;2023-05-25T10:07:08;95145.28;;;15.50;74.16
56330;BME280;42236;48.058;10.632;2023-05-25T10:09:54;95141.13;;;15.56;73.86
56330;BME280;42236;48.058;10.632;2023-05-25T10:12:41;95140.09;;;15.64;73.26
56330;BME280;42236;48.058;10.632;2023-05-25T10:15:28;95148.47;;;15.75;72.92
56330;BME280;42236;48.058;10.632;2023-05-25T10:18:16;95153.44;;;15.50;72.87
56330;BME280;42236;48.058;10.632;2023-05-25T10:21:08;95156.00;;;15.62;73.25
56330;BME280;42236;48.058;10.632;2023-05-25T10:24:08;95160.66;;;15.62;72.67
56330;BME280;42236;48.058;10.632;2023-05-25T10:26:58;95153.72;;;15.64;73.23
56330;BME280;42236;48.058;10.632;2023-05-25T10:29:47;95161.38;;;15.58;72.73
56330;BME280;42236;48.058;10.632;2023-05-25T10:32:35;95163.84;;;15.67;73.03
56330;BME280;42236;48.058;10.632;2023-05-25T10:35:22;95163.16;;;15.70;72.74
56330;BME280;42236;48.058;10.632;2023-05-25T10:38:09;95167.22;;;15.99;71.98
56330;BME280;42236;48.058;10.632;2023-05-25T10:40:54;95173.31;;;16.16;71.54
56330;BME280;42236;48.058;10.632;2023-05-25T10:43:41;95172.47;;;16.12;70.92
56330;BME280;42236;48.058;10.632;2023-05-25T10:46:28;95174.94;;;16.20;70.35
56330;BME280;42236;48.058;10.632;2023-05-25T10:52:41;95179.91;;;16.15;71.06
56330;BME280;42236;48.058;10.632;2023-05-25T11:02:14;95181.97;;;16.21;69.65
56330;BME280;42236;48.058;10.632;2023-05-25T11:09:00;95181.78;;;16.34;70.17
56330;BME280;42236;48.058;10.632;2023-05-25T11:15:09;95172.34;;;16.51;66.65
56330;BME280;42236;48.058;10.632;2023-05-25T11:17:57;95175.69;;;16.67;68.46
56330;BME280;42236;48.058;10.632;2023-05-25T11:20:46;95177.31;;;16.72;67.61
56330;BME280;42236;48.058;10.632;2023-05-25T11:24:09;95173.97;;;16.55;66.98
56330;BME280;42236;48.058;10.632;2023-05-25T11:26:58;95172.50;;;16.61;68.50
56330;BME280;42236;48.058;10.632;2023-05-25T11:33:28;95169.56;;;16.74;67.68
56330;BME280;42236;48.058;10.632;2023-05-25T11:36:22;95171.22;;;16.78;67.67
56330;BME280;42236;48.058;10.632;2023-05-25T11:42:31;95172.88;;;17.43;66.69
56330;BME280;42236;48.058;10.632;2023-05-25T11:45:20;95166.47;;;17.62;64.77
56330;BME280;42236;48.058;10.632;2023-05-25T11:48:26;95178.41;;;17.51;65.35
56330;BME280;42236;48.058;10.632;2023-05-25T11:51:23;95165.63;;;17.24;64.24
56330;BME280;42236;48.058;10.632;2023-05-25T11:54:36;95167.06;;;17.45;64.31
56330;BME280;42236;48.058;10.632;2023-05-25T12:05:10;95172.28;;;17.61;63.18
56330;BME280;42236;48.058;10.632;2023-05-25T12:08:32;95168.91;;;17.71;63.40
56330;BME280;42236;48.058;10.632;2023-05-25T12:11:35;95170.16;;;17.77;62.79
56330;BME280;42236;48.058;10.632;2023-05-25T12:14:50;95181.81;;;17.74;61.77
56330;BME280;42236;48.058;10.632;2023-05-25T12:18:01;95174.16;;;17.83;62.91
56330;BME280;42236;48.058;10.632;2023-05-25T12:20:48;95172.03;;;18.07;63.04
56330;BME280;42236;48.058;10.632;2023-05-25T12:23:56;95174.91;;;18.21;61.44
56330;BME280;42236;48.058;10.632;2023-05-25T12:30:48;95173.06;;;18.32;61.64
56330;BME280;42236;48.058;10.632;2023-05-25T12:38:08;95165.09;;;18.17;61.46
56330;BME280;42236;48.058;10.632;2023-05-25T12:44:59;95166.00;;;18.28;62.59
56330;BME280;42236;48.058;10.632;2023-05-25T13:02:12;95165.91;;;18.21;61.97
56330;BME280;42236;48.058;10.632;2023-05-25T13:05:01;95157.28;;;18.15;62.08
56330;BME280;42236;48.058;10.632;2023-05-25T13:07:55;95159.81;;;18.34;61.57
56330;BME280;42236;48.058;10.632;2023-05-25T13:18:57;95158.78;;;19.05;60.03
56330;BME280;42236;48.058;10.632;2023-05-25T13:21:46;95165.06;;;19.09;60.50
56330;BME280;42236;48.058;10.632;2023-05-25T13:28:45;95157.44;;;18.29;60.84
56330;BME280;42236;48.058;10.632;2023-05-25T13:38:52;95163.41;;;19.01;61.09
56330;BME280;42236;48.058;10.632;2023-05-25T13:41:49;95157.63;;;19.13;60.63
56330;BME280;42236;48.058;10.632;2023-05-25T13:45:05;95150.34;;;19.35;60.51
56330;BME280;42236;48.058;10.632;2023-05-25T13:48:01;95151.59;;;19.63;59.49
56330;BME280;42236;48.058;10.632;2023-05-25T13:58:18;95150.78;;;19.52;59.71
56330;BME280;42236;48.058;10.632;2023-05-25T14:12:40;95136.34;;;19.55;59.08
56330;BME280;42236;48.058;10.632;2023-05-25T14:19:28;95135.63;;;19.76;58.30
56330;BME280;42236;48.058;10.632;2023-05-25T14:29:18;95133.38;;;20.14;59.54
56330;BME280;42236;48.058;10.632;2023-05-25T14:39:32;95145.09;;;20.11;58.34
56330;BME280;42236;48.058;10.632;2023-05-25T14:42:54;95135.72;;;20.15;59.43
56330;BME280;42236;48.058;10.632;2023-05-25T14:45:48;95130.25;;;20.30;58.46
56330;BME280;42236;48.058;10.632;2023-05-25T14:48:34;95131.03;;;20.37;58.65
56330;BME280;42236;48.058;10.632;2023-05-25T14:51:20;95134.94;;;20.54;58.38
56330;BME280;42236;48.058;10.632;2023-05-25T14:54:09;95144.34;;;20.82;57.78
56330;BME280;42236;48.058;10.632;2023-05-25T14:56:57;95138.06;;;20.88;57.61
56330;BME280;42236;48.058;10.632;2023-05-25T14:59:43;95138.09;;;20.74;57.38
56330;BME280;42236;48.058;10.632;2023-05-25T15:02:29;95142.78;;;20.63;57.29
56330;BME280;42236;48.058;10.632;2023-05-25T15:05:15;95134.97;;;20.69;57.38
56330;BME280;42236;48.058;10.632;2023-05-25T15:08:01;95139.63;;;20.75;56.77
56330;BME280;42236;48.058;10.632;2023-05-25T15:11:11;95139.22;;;20.95;54.79
56330;BME280;42236;48.058;10.632;2023-05-25T15:13:56;95137.25;;;20.99;55.21
56330;BME280;42236;48.058;10.632;2023-05-25T15:17:02;95140.81;;;20.78;55.26
56330;BME280;42236;48.058;10.632;2023-05-25T15:19:47;95147.09;;;20.60;57.05
56330;BME280;42236;48.058;10.632;2023-05-25T15:22:35;95134.19;;;20.64;56.88
56330;BME280;42236;48.058;10.632;2023-05-25T15:25:21;95133.75;;;20.87;55.99
56330;BME280;42236;48.058;10.632;2023-05-25T15:28:28;95140.34;;;21.15;54.35
56330;BME280;42236;48.058;10.632;2023-05-25T15:31:14;95136.72;;;21.54;54.78
56330;BME280;42236;48.058;10.632;2023-05-25T15:34:00;95130.69;;;21.81;54.85
56330;BME280;42236;48.058;10.632;2023-05-25T15:36:45;95125.63;;;21.76;54.13
56330;BME280;42236;48.058;10.632;2023-05-25T15:39:31;95136.34;;;21.45;54.80
56330;BME280;42236;48.058;10.632;2023-05-25T15:42:35;95130.13;;;21.26;55.43
56330;BME280;42236;48.058;10.632;2023-05-25T15:45:21;95126.97;;;21.46;55.29
56330;BME280;42236;48.058;10.632;2023-05-25T15:48:06;95130.59;;;21.99;54.81
56330;BME280;42236;48.058;10.632;2023-05-25T15:50:54;95130.41;;;22.31;54.65
56330;BME280;42236;48.058;10.632;2023-05-25T15:53:43;95137.06;;;22.30;54.50
56330;BME280;42236;48.058;10.632;2023-05-25T15:56:28;95129.53;;;22.41;54.09
56330;BME280;42236;48.058;10.632;2023-05-25T15:59:14;95131.22;;;22.73;53.28
56330;BME280;42236;48.058;10.632;2023-05-25T16:02:00;95128.28;;;22.94;53.19
56330;BME280;42236;48.058;10.632;2023-05-25T16:04:46;95126.16;;;22.71;52.36
56330;BME280;42236;48.058;10.632;2023-05-25T16:07:32;95126.84;;;22.34;53.20
56330;BME280;42236;48.058;10.632;2023-05-25T16:10:23;95117.78;;;22.37;52.01
56330;BME280;42236;48.058;10.632;2023-05-25T16:13:09;95122.44;;;22.47;51.93
56330;BME280;42236;48.058;10.632;2023-05-25T16:15:55;95117.28;;;22.53;51.65
56330;BME280;42236;48.058;10.632;2023-05-25T16:18:41;95124.75;;;22.52;51.11
56330;BME280;42236;48.058;10.632;2023-05-25T16:21:37;95120.66;;;22.68;50.76
56330;BME280;42236;48.058;10.632;2023-05-25T16:24:23;95127.03;;;23.03;50.30
56330;BME280;42236;48.058;10.632;2023-05-25T16:27:08;95120.75;;;23.06;50.02
56330;BME280;42236;48.058;10.632;2023-05-25T16:29:54;95127.25;;;23.23;48.52
56330;BME280;42236;48.058;10.632;2023-05-25T16:32:40;95137.75;;;23.31;48.57
56330;BME280;42236;48.058;10.632;2023-05-25T16:35:28;95135.38;;;22.95;48.57
56330;BME280;42236;48.058;10.632;2023-05-25T16:38:14;95139.72;;;23.31;48.40
56330;BME280;42236;48.058;10.632;2023-05-25T16:41:00;95133.66;;;23.77;47.91
56330;BME280;42236;48.058;10.632;2023-05-25T16:43:46;95137.31;;;23.67;46.05
56330;BME280;42236;48.058;10.632;2023-05-25T16:46:49;95134.94;;;23.69;44.90
56330;BME280;42236;48.058;10.632;2023-05-25T16:49:35;95135.56;;;23.84;47.20
56330;BME280;42236;48.058;10.632;2023-05-25T16:52:21;95129.28;;;24.11;46.58
56330;BME280;42236;48.058;10.632;2023-05-25T16:55:07;95134.44;;;24.36;46.41